Time;durP1;ratioP1;P1;durP2;ratioP2;P2;SDS_P1;SDS_P2;PMS_P1;PMS_P2;Temp;Humidity;BMP_temperature;BMP_pressure;BME280_temperature;BME280_humidity;BME280_pressure;Samples;Min_cycle;Max_cycle;Signal;HPM_P1;HPM_P2
2022/05/11 00:01:26;;;;;;;3.22;2.05;;;21.60;51.50;;;;;;5025235;28;20083;-74
2022/05/11 00:04:02;;;;;;;2.72;2.05;;;21.60;51.50;;;;;;5025610;28;20036;-73
2022/05/11 00:06:29;;;;;;;2.45;2.00;;;21.50;51.50;;;;;;5022711;28;20307;-73
2022/05/11 00:08:56;;;;;;;2.88;2.00;;;21.50;51.50;;;;;;5025071;28;20034;-73
2022/05/11 00:11:23;;;;;;;3.00;1.98;;;21.50;51.50;;;;;;5023269;28;20676;-74
2022/05/11 00:13:49;;;;;;;5.43;2.13;;;21.50;51.50;;;;;;5025806;28;20034;-74
2022/05/11 00:16:15;;;;;;;3.83;2.28;;;21.50;51.50;;;;;;5025158;28;20280;-74
2022/05/11 00:18:41;;;;;;;2.80;1.90;;;21.50;51.50;;;;;;5024342;28;20061;-74
2022/05/11 00:21:07;;;;;;;2.13;1.80;;;21.40;51.50;;;;;;5025654;28;20037;-74
2022/05/11 00:23:34;;;;;;;3.53;1.95;;;21.50;51.60;;;;;;5024537;28;20041;-74
2022/05/11 00:25:59;;;;;;;4.28;2.10;;;21.40;51.50;;;;;;5008519;28;20060;-74
2022/05/11 00:28:25;;;;;;;3.80;2.22;;;21.40;51.50;;;;;;5024372;28;20045;-74
2022/05/11 00:30:51;;;;;;;2.80;2.10;;;21.40;52.30;;;;;;5024291;28;20116;-74
2022/05/11 00:33:18;;;;;;;2.88;2.05;;;21.40;51.60;;;;;;5024328;28;20034;-74
2022/05/11 00:35:46;;;;;;;2.22;2.00;;;21.40;51.60;;;;;;5024011;28;20099;-74
2022/05/11 00:38:12;;;;;;;3.90;1.90;;;21.40;51.80;;;;;;5025766;28;20507;-76
2022/05/11 00:40:47;;;;;;;3.03;2.00;;;21.40;51.90;;;;;;5029569;28;20133;-77
2022/05/11 00:43:13;;;;;;;4.50;2.47;;;21.40;52.10;;;;;;5029369;28;20065;-74
2022/05/11 00:45:45;;;;;;;2.97;1.95;;;21.40;52.10;;;;;;5025780;28;20033;-72
2022/05/11 00:51:00;;;;;;;3.50;1.77;;;21.40;52.00;;;;;;5027270;28;20041;-74
2022/05/11 00:53:26;;;;;;;2.55;1.98;;;21.40;52.00;;;;;;5028610;28;20092;-75
2022/05/11 00:55:59;;;;;;;4.10;2.20;;;21.40;52.00;;;;;;5026219;28;20069;-74
2022/05/11 00:58:39;;;;;;;2.90;1.92;;;21.40;51.90;;;;;;5026651;28;20045;-75
2022/05/11 01:01:06;;;;;;;2.28;1.80;;;21.40;51.90;;;;;;5027686;28;20129;-73
2022/05/11 01:03:41;;;;;;;4.50;2.30;;;21.40;52.00;;;;;;5027446;28;20037;-74
2022/05/11 01:06:10;;;;;;;2.92;1.83;;;21.40;52.00;;;;;;5029570;28;20056;-73
2022/05/11 01:08:35;;;;;;;2.85;1.90;;;21.40;52.10;;;;;;5029377;28;20045;-74
2022/05/11 01:11:04;;;;;;;4.50;2.00;;;21.40;52.10;;;;;;5028871;28;20045;-74
2022/05/11 01:13:32;;;;;;;2.15;1.90;;;21.40;52.10;;;;;;5028799;28;21557;-75
2022/05/11 01:16:00;;;;;;;3.85;2.00;;;21.30;52.10;;;;;;5027016;28;20037;-73
2022/05/11 01:18:26;;;;;;;2.72;2.20;;;21.30;52.10;;;;;;5014259;28;20064;-74
2022/05/11 01:20:52;;;;;;;4.95;2.42;;;21.40;52.20;;;;;;5007898;28;20501;-73
2022/05/11 01:23:37;;;;;;;3.28;2.00;;;21.30;52.10;;;;;;5022493;28;20104;-74
2022/05/11 01:26:03;;;;;;;2.88;1.92;;;21.30;52.10;;;;;;5027980;28;20059;-75
2022/05/11 01:28:30;;;;;;;4.72;1.95;;;21.40;52.20;;;;;;5026235;28;20096;-74
2022/05/11 01:31:05;;;;;;;2.35;1.70;;;21.30;52.10;;;;;;5027438;28;20053;-74
2022/05/11 01:33:32;;;;;;;3.83;2.03;;;21.30;52.20;;;;;;5026127;28;20521;-74
2022/05/11 01:36:34;;;;;;;2.53;1.90;;;21.30;52.20;;;;;;5028537;28;20034;-75
2022/05/11 01:39:05;;;;;;;2.63;1.90;;;21.30;52.10;;;;;;5027984;28;20084;-74
2022/05/11 01:41:43;;;;;;;3.15;2.00;;;21.30;52.10;;;;;;5027919;28;20060;-74
2022/05/11 01:44:16;;;;;;;2.65;2.20;;;21.30;52.10;;;;;;5028081;28;20056;-73
2022/05/11 01:46:46;;;;;;;3.03;2.20;;;21.30;52.10;;;;;;5012219;28;20162;-74
2022/05/11 01:49:11;;;;;;;2.95;2.03;;;21.20;52.10;;;;;;5027234;28;20121;-74
2022/05/11 01:51:37;;;;;;;2.63;1.73;;;21.30;52.20;;;;;;5027342;28;20041;-74
2022/05/11 01:54:03;;;;;;;2.10;1.90;;;21.20;52.10;;;;;;5027757;28;20370;-74
2022/05/11 01:56:29;;;;;;;2.63;1.80;;;21.30;52.20;;;;;;5027702;28;20046;-73
2022/05/11 01:58:54;;;;;;;2.13;1.88;;;21.20;52.20;;;;;;5026224;28;20037;-74
2022/05/11 02:01:30;;;;;;;1.98;1.73;;;21.20;52.20;;;;;;5027799;28;20104;-74
2022/05/11 02:03:56;;;;;;;2.10;1.75;;;21.20;52.20;;;;;;5026188;28;20038;-74
2022/05/11 02:09:07;;;;;;;2.17;1.77;;;21.20;52.20;;;;;;5025847;28;20045;-74
2022/05/11 02:11:32;;;;;;;2.28;1.95;;;21.20;52.20;;;;;;5027599;28;20577;-74
2022/05/11 02:13:58;;;;;;;2.83;1.90;;;21.20;52.20;;;;;;5027644;28;20041;-74
2022/05/11 02:16:24;;;;;;;2.22;1.75;;;21.20;52.20;;;;;;5026177;28;20056;-74
2022/05/11 02:18:50;;;;;;;1.92;1.73;;;21.20;52.20;;;;;;5028473;28;20132;-73
2022/05/11 02:21:16;;;;;;;2.45;1.70;;;21.20;52.20;;;;;;5026572;28;20041;-73
2022/05/11 02:23:42;;;;;;;2.85;1.90;;;21.20;52.20;;;;;;5026948;28;20488;-74
2022/05/11 02:26:12;;;;;;;2.17;1.77;;;21.10;52.10;;;;;;5026402;28;20045;-73
2022/05/11 02:28:38;;;;;;;2.03;1.60;;;21.10;52.10;;;;;;5025617;28;20175;-74
2022/05/11 02:31:04;;;;;;;1.92;1.63;;;21.10;52.10;;;;;;5027020;28;20037;-74
2022/05/11 02:33:30;;;;;;;2.40;1.88;;;21.10;52.10;;;;;;5026007;28;20084;-74
2022/05/11 02:35:55;;;;;;;3.17;1.90;;;21.10;52.10;;;;;;5027462;28;20819;-74
2022/05/11 02:38:24;;;;;;;2.78;1.85;;;21.10;52.10;;;;;;5026364;28;20064;-73
2022/05/11 02:40:51;;;;;;;3.40;1.70;;;21.10;52.10;;;;;;5027380;28;20045;-74
2022/05/11 02:43:17;;;;;;;1.95;1.75;;;21.10;52.10;;;;;;5027106;28;20049;-73
2022/05/11 02:45:43;;;;;;;3.53;1.70;;;21.10;52.20;;;;;;5026389;28;20092;-74
2022/05/11 02:48:12;;;;;;;1.88;1.63;;;21.10;52.10;;;;;;5027839;28;20507;-74
2022/05/11 02:50:46;;;;;;;2.08;1.75;;;21.10;52.10;;;;;;5041455;28;20444;-74
2022/05/11 02:53:13;;;;;;;2.05;1.50;;;21.10;52.10;;;;;;5028026;28;20038;-73
2022/05/11 02:55:42;;;;;;;2.35;1.90;;;21.10;52.10;;;;;;5020637;28;20041;-74
2022/05/11 02:58:08;;;;;;;2.50;1.90;;;21.10;52.10;;;;;;5007696;28;20046;-73
2022/05/11 03:00:38;;;;;;;2.95;1.75;;;21.10;52.10;;;;;;5005778;28;20068;-75
2022/05/11 03:03:05;;;;;;;2.53;1.85;;;21.10;52.10;;;;;;5015495;28;20045;-76
2022/05/11 03:05:31;;;;;;;1.93;1.80;;;21.10;52.20;;;;;;5024214;28;20045;-75
2022/05/11 03:07:57;;;;;;;3.42;1.80;;;21.10;52.20;;;;;;5026322;28;20049;-74
2022/05/11 03:10:23;;;;;;;2.50;1.70;;;21.10;52.10;;;;;;5026978;28;20052;-74
2022/05/11 03:12:49;;;;;;;1.98;1.70;;;21.00;52.10;;;;;;5025401;28;20053;-74
2022/05/11 03:15:15;;;;;;;1.98;1.50;;;21.10;52.10;;;;;;5025521;28;20123;-74
2022/05/11 03:17:41;;;;;;;1.85;1.60;;;21.10;52.20;;;;;;5026647;28;20523;-74
2022/05/11 03:20:09;;;;;;;1.65;1.55;;;21.00;52.10;;;;;;5026838;28;20079;-75
2022/05/11 03:22:35;;;;;;;2.30;1.80;;;21.00;52.20;;;;;;5026919;28;20362;-73
2022/05/11 03:25:01;;;;;;;2.70;1.50;;;21.00;52.10;;;;;;5026035;28;20049;-74
2022/05/11 03:27:27;;;;;;;2.83;1.80;;;21.00;52.10;;;;;;5024317;28;20080;-74
2022/05/11 03:29:53;;;;;;;4.30;1.70;;;21.00;52.10;;;;;;5024833;28;20475;-74
2022/05/11 03:35:07;;;;;;;1.70;1.60;;;21.00;52.10;;;;;;5024928;28;20390;-74
2022/05/11 03:37:33;;;;;;;3.33;1.80;;;21.00;52.10;;;;;;5025423;28;20515;-74
2022/05/11 03:40:00;;;;;;;3.72;1.73;;;21.00;52.10;;;;;;5027020;28;20049;-75
2022/05/11 03:42:30;;;;;;;3.72;1.58;;;21.00;52.10;;;;;;5024837;28;20065;-76
2022/05/11 03:45:24;;;;;;;2.63;1.80;;;21.00;52.10;;;;;;5024517;28;20103;-74
2022/05/11 03:47:50;;;;;;;2.38;1.80;;;21.00;52.10;;;;;;5023533;28;20061;-75
2022/05/11 03:50:22;;;;;;;1.70;1.50;;;21.00;52.10;;;;;;5023860;28;20041;-73
2022/05/11 03:52:52;;;;;;;3.13;1.80;;;21.00;52.10;;;;;;5019247;28;20037;-73
2022/05/11 03:55:19;;;;;;;2.45;1.50;;;21.00;52.20;;;;;;5014032;28;20049;-72
2022/05/11 03:57:44;;;;;;;2.25;1.70;;;21.00;52.30;;;;;;4998808;28;20068;-73
2022/05/11 04:00:14;;;;;;;3.00;1.75;;;21.00;52.40;;;;;;5019677;28;20053;-74
2022/05/11 04:02:41;;;;;;;3.47;1.60;;;21.00;52.50;;;;;;5020371;28;20041;-73
2022/05/11 04:05:07;;;;;;;2.55;1.63;;;21.00;52.50;;;;;;5018293;28;20057;-74
2022/05/11 04:07:33;;;;;;;2.95;1.88;;;21.00;52.50;;;;;;5021735;28;20037;-73
2022/05/11 04:09:59;;;;;;;6.45;1.70;;;21.00;52.50;;;;;;5014768;28;21255;-74
2022/05/11 04:12:27;;;;;;;10.18;1.77;;;21.00;52.50;;;;;;5021357;28;20033;-71
2022/05/11 04:14:53;;;;;;;2.47;1.65;;;21.00;52.50;;;;;;5011214;28;20049;-72
2022/05/11 04:17:18;;;;;;;6.30;1.52;;;21.00;52.60;;;;;;5020845;28;20068;-70
2022/05/11 04:19:44;;;;;;;3.10;1.48;;;21.00;52.70;;;;;;5021393;28;20140;-74
2022/05/11 04:22:10;;;;;;;4.80;1.60;;;21.00;52.70;;;;;;5020515;28;20045;-71
2022/05/11 04:24:35;;;;;;;2.65;1.70;;;21.00;52.70;;;;;;5018046;28;20048;-73
2022/05/11 04:27:01;;;;;;;2.75;1.70;;;21.00;52.80;;;;;;5017924;28;20151;-73
2022/05/11 04:29:27;;;;;;;3.17;1.65;;;21.00;52.80;;;;;;5003909;28;20514;-71
2022/05/11 04:31:54;;;;;;;4.78;1.73;;;21.00;52.70;;;;;;5019845;28;20057;-71
2022/05/11 04:34:20;;;;;;;2.92;1.83;;;21.00;52.70;;;;;;5021103;28;20037;-71
2022/05/11 04:36:45;;;;;;;4.60;1.52;;;21.00;52.80;;;;;;5019611;28;20044;-74
2022/05/11 04:39:11;;;;;;;4.55;1.83;;;21.00;52.70;;;;;;5021456;28;20440;-73
2022/05/11 04:41:36;;;;;;;2.55;1.52;;;21.00;52.70;;;;;;5020979;28;20041;-72
2022/05/11 04:44:02;;;;;;;3.47;1.55;;;21.00;52.70;;;;;;5020587;28;20071;-75
2022/05/11 04:46:28;;;;;;;3.20;1.65;;;21.00;52.80;;;;;;5021426;28;20049;-72
2022/05/11 04:49:16;;;;;;;2.13;1.50;;;21.00;52.70;;;;;;5021409;28;20062;-73
2022/05/11 04:51:39;;;;;;;3.08;1.70;;;21.00;52.80;;;;;;5020275;28;20046;-73
2022/05/11 04:54:04;;;;;;;4.93;1.55;;;21.00;52.70;;;;;;5021666;28;20070;-72
2022/05/11 04:56:32;;;;;;;2.80;1.60;;;21.00;52.70;;;;;;5018215;28;20107;-72
2022/05/11 04:58:58;;;;;;;2.70;1.75;;;21.00;52.70;;;;;;5021215;28;20148;-72
2022/05/11 05:01:25;;;;;;;2.95;1.60;;;21.00;52.70;;;;;;5020962;28;20120;-72
2022/05/11 05:03:50;;;;;;;2.28;1.67;;;21.00;52.70;;;;;;5018858;28;20740;-72
2022/05/11 05:06:16;;;;;;;1.52;1.40;;;21.00;52.70;;;;;;5021151;28;20053;-72
2022/05/11 05:08:42;;;;;;;2.80;1.70;;;20.90;52.70;;;;;;5018236;28;20137;-72
2022/05/11 05:11:07;;;;;;;3.55;1.40;;;21.00;53.50;;;;;;5021145;28;20071;-74
2022/05/11 05:13:33;;;;;;;2.20;1.73;;;21.00;52.70;;;;;;5019425;28;20041;-73
2022/05/11 05:15:58;;;;;;;3.55;1.52;;;21.00;52.70;;;;;;5020528;28;20045;-72
2022/05/11 05:18:24;;;;;;;2.55;1.65;;;21.00;52.70;;;;;;5019862;28;20437;-74
2022/05/11 05:20:50;;;;;;;2.30;1.50;;;21.00;52.80;;;;;;5019864;28;20389;-74
2022/05/11 05:23:15;;;;;;;5.05;2.03;;;21.00;52.80;;;;;;5020368;28;20072;-72
2022/05/11 05:25:41;;;;;;;3.45;1.70;;;21.00;52.80;;;;;;5023144;28;20029;-72
2022/05/11 05:31:06;;;;;;;3.47;1.48;;;21.00;52.80;;;;;;5021812;28;20045;-73
2022/05/11 05:33:34;;;;;;;3.65;1.42;;;21.00;52.80;;;;;;5006009;28;20672;-74
2022/05/11 05:36:01;;;;;;;3.08;1.77;;;21.00;52.90;;;;;;5022239;28;20053;-73
2022/05/11 05:38:27;;;;;;;2.67;1.70;;;21.00;53.00;;;;;;5026274;28;20515;-74
2022/05/11 05:40:54;;;;;;;3.35;1.52;;;21.00;53.10;;;;;;5022649;28;20044;-73
2022/05/11 05:43:23;;;;;;;4.63;1.70;;;21.00;53.10;;;;;;5021534;28;20071;-73
2022/05/11 05:45:51;;;;;;;2.70;1.75;;;21.00;53.00;;;;;;5022573;28;20053;-74
2022/05/11 05:48:19;;;;;;;3.27;1.63;;;21.00;53.00;;;;;;5024755;28;20048;-75
2022/05/11 05:50:45;;;;;;;2.95;1.73;;;21.00;53.10;;;;;;5023174;28;20152;-73
2022/05/11 05:53:11;;;;;;;1.83;1.50;;;21.10;53.10;;;;;;5022211;28;20043;-74
2022/05/11 05:55:37;;;;;;;4.07;1.73;;;21.00;53.10;;;;;;5006238;28;20052;-74
2022/05/11 05:58:03;;;;;;;7.97;1.98;;;21.10;53.10;;;;;;5023710;28;20045;-74
2022/05/11 06:00:29;;;;;;;3.78;2.00;;;21.10;53.00;;;;;;5022844;28;20274;-75
2022/05/11 06:02:56;;;;;;;2.53;1.55;;;21.10;53.00;;;;;;5021741;28;20061;-74
2022/05/11 06:05:22;;;;;;;6.78;1.63;;;21.00;52.80;;;;;;5018584;28;20083;-72
2022/05/11 06:07:47;;;;;;;8.40;1.90;;;21.10;52.90;;;;;;5022409;28;20124;-73
2022/05/11 06:10:13;;;;;;;10.98;2.00;;;21.10;52.80;;;;;;5019952;28;20560;-72
2022/05/11 06:12:39;;;;;;;6.07;1.83;;;21.10;52.80;;;;;;5022522;28;20041;-75
2022/05/11 06:15:05;;;;;;;3.83;1.52;;;21.10;52.80;;;;;;5016826;28;20045;-72
2022/05/11 06:17:32;;;;;;;6.70;1.83;;;21.10;52.80;;;;;;5023300;28;20103;-71
2022/05/11 06:19:58;;;;;;;5.95;1.85;;;21.10;52.80;;;;;;5021255;28;20092;-72
2022/05/11 06:22:25;;;;;;;5.68;1.80;;;21.10;53.70;;;;;;5021605;28;20041;-76
2022/05/11 06:24:51;;;;;;;5.13;2.05;;;21.10;53.00;;;;;;5023766;28;20135;-73
2022/05/11 06:27:19;;;;;;;3.15;1.90;;;21.20;53.00;;;;;;5023118;28;20743;-73
2022/05/11 06:29:53;;;;;;;3.95;2.28;;;21.20;52.90;;;;;;5021391;28;20413;-76
2022/05/11 06:32:19;;;;;;;2.55;1.60;;;21.20;53.00;;;;;;5021921;28;20456;-72
2022/05/11 06:34:45;;;;;;;6.85;1.80;;;21.20;53.00;;;;;;5022349;28;20048;-78
2022/05/11 06:37:11;;;;;;;11.45;1.90;;;21.20;53.10;;;;;;5017291;28;20100;-77
2022/05/11 06:39:36;;;;;;;4.80;1.75;;;21.30;53.20;;;;;;5019547;28;20199;-74
2022/05/11 06:42:10;;;;;;;4.00;1.60;;;21.20;53.20;;;;;;5021709;28;20033;-72
2022/05/11 06:44:36;;;;;;;3.65;1.70;;;21.30;53.30;;;;;;5020577;28;20665;-72
2022/05/11 06:47:03;;;;;;;6.57;1.77;;;21.30;53.30;;;;;;5022330;28;20049;-72
2022/05/11 06:49:29;;;;;;;3.58;1.60;;;21.30;53.30;;;;;;5020654;28;20080;-75
2022/05/11 06:51:55;;;;;;;4.57;1.70;;;21.30;53.30;;;;;;5020728;28;20117;-72
2022/05/11 06:59:54;;;;;;;5.57;1.95;;;21.40;53.40;;;;;;5018263;28;20048;-73
2022/05/11 07:02:19;;;;;;;3.55;1.73;;;21.40;53.40;;;;;;5021235;28;20405;-75
2022/05/11 07:04:45;;;;;;;3.28;1.67;;;21.40;53.40;;;;;;5020697;28;20049;-74
2022/05/11 07:07:10;;;;;;;9.70;1.75;;;21.40;53.40;;;;;;5022701;28;20816;-75
2022/05/11 07:09:36;;;;;;;6.72;1.70;;;21.40;53.40;;;;;;5019601;28;20041;-74
2022/05/11 07:12:18;;;;;;;7.60;1.70;;;21.40;53.40;;;;;;5020835;28;20073;-74
2022/05/11 07:14:49;;;;;;;4.05;1.63;;;21.50;53.40;;;;;;5019517;28;20056;-72
2022/05/11 07:17:36;;;;;;;5.78;2.05;;;21.50;53.50;;;;;;5022063;28;20045;-74
2022/05/11 07:20:09;;;;;;;5.93;2.10;;;21.50;53.50;;;;;;5017610;28;20065;-74
2022/05/11 07:22:38;;;;;;;2.83;1.80;;;21.50;53.50;;;;;;5019257;28;20052;-76
2022/05/11 07:25:05;;;;;;;10.13;1.70;;;21.50;53.50;;;;;;5023092;28;20692;-76
2022/05/11 07:27:30;;;;;;;3.65;1.73;;;21.50;53.50;;;;;;5022170;28;20492;-74
2022/05/11 07:29:56;;;;;;;4.07;2.28;;;21.60;53.60;;;;;;5020303;28;20053;-77
2022/05/11 07:32:23;;;;;;;8.68;2.40;;;21.60;53.60;;;;;;5021179;28;20037;-75
2022/05/11 07:34:52;;;;;;;4.85;2.00;;;21.60;53.60;;;;;;5019461;28;20053;-72
2022/05/11 07:37:17;;;;;;;4.18;1.88;;;21.60;53.70;;;;;;5013861;28;20626;-71
2022/05/11 07:39:43;;;;;;;6.25;2.30;;;21.70;53.70;;;;;;5017418;28;20035;-74
2022/05/11 07:42:09;;;;;;;4.18;1.63;;;21.70;53.80;;;;;;5003712;28;20389;-74
2022/05/11 07:44:35;;;;;;;7.80;1.90;;;21.70;53.80;;;;;;5021979;28;20152;-72
2022/05/11 07:47:01;;;;;;;6.30;1.83;;;21.70;53.80;;;;;;5019944;28;20049;-71
2022/05/11 07:49:26;;;;;;;5.65;1.98;;;21.70;53.90;;;;;;5020444;28;20041;-72
2022/05/11 07:51:52;;;;;;;5.93;2.03;;;21.80;54.20;;;;;;5013658;28;20810;-71
2022/05/11 07:54:19;;;;;;;4.90;1.90;;;21.80;53.90;;;;;;5019848;28;20512;-71
2022/05/11 08:02:15;;;;;;;3.53;1.35;;;21.90;53.90;;;;;;5017541;28;20045;-72
2022/05/11 08:04:41;;;;;;;4.82;1.70;;;21.90;53.80;;;;;;5017853;28;20041;-72
2022/05/11 08:07:08;;;;;;;4.35;1.77;;;22.00;53.90;;;;;;5014666;28;20512;-72
2022/05/11 08:09:33;;;;;;;5.90;2.25;;;22.00;53.90;;;;;;5021445;28;20041;-72
2022/05/11 08:12:00;;;;;;;4.00;1.73;;;22.00;54.00;;;;;;5015276;28;20490;-73
2022/05/11 08:14:29;;;;;;;10.10;2.00;;;22.00;54.00;;;;;;5015254;28;20037;-72
2022/05/11 08:16:54;;;;;;;8.02;2.22;;;22.00;53.90;;;;;;5018585;28;20088;-73
2022/05/11 08:19:24;;;;;;;5.10;1.60;;;22.10;53.70;;;;;;5020238;28;20060;-74
2022/05/11 08:21:51;;;;;;;7.70;1.90;;;22.10;53.60;;;;;;5014477;28;20107;-74
2022/05/11 08:24:17;;;;;;;4.85;1.80;;;22.10;53.40;;;;;;5016482;28;20432;-73
2022/05/11 08:26:45;;;;;;;3.40;1.70;;;22.10;53.40;;;;;;5018379;28;20042;-73
2022/05/11 08:33:18;;;;;;;5.32;2.05;;;22.20;53.40;;;;;;5016621;28;20041;-71
2022/05/11 08:34:42;;;;;;;5.68;1.80;;;22.20;53.40;;;;;;5019014;28;20140;-73
2022/05/11 08:37:07;;;;;;;5.78;1.80;;;22.30;53.40;;;;;;5016385;28;20520;-72
2022/05/11 08:39:33;;;;;;;5.75;1.73;;;22.30;53.40;;;;;;5019043;28;20053;-72
2022/05/11 08:42:00;;;;;;;4.63;1.70;;;22.30;53.30;;;;;;5017281;28;20129;-72
2022/05/11 08:44:31;;;;;;;3.88;1.80;;;22.40;53.20;;;;;;5017778;28;20254;-73
2022/05/11 08:47:02;;;;;;;4.10;1.90;;;22.50;53.30;;;;;;5017170;28;20057;-73
2022/05/11 08:49:59;;;;;;;3.75;1.65;;;22.50;53.20;;;;;;5013894;28;20080;-72
2022/05/11 08:52:44;;;;;;;4.35;1.88;;;22.50;53.10;;;;;;5015945;28;20397;-72
2022/05/11 08:55:17;;;;;;;8.32;2.10;;;22.50;52.90;;;;;;5009102;28;20049;-71
2022/05/11 08:57:44;;;;;;;6.78;1.50;;;22.50;52.80;;;;;;5018617;28;20144;-70
2022/05/11 09:00:14;;;;;;;3.58;1.70;;;22.50;52.70;;;;;;5016885;28;20060;-75
2022/05/11 09:02:45;;;;;;;3.60;1.48;;;22.50;52.50;;;;;;5023712;28;20052;-73
2022/05/11 09:05:11;;;;;;;7.10;1.75;;;22.60;52.50;;;;;;5024604;28;20057;-71
2022/05/11 09:07:39;;;;;;;5.95;1.80;;;22.60;52.40;;;;;;5021577;28;20392;-73
2022/05/11 09:10:07;;;;;;;3.53;1.60;;;22.60;52.30;;;;;;5020726;28;20159;-72
2022/05/11 09:12:35;;;;;;;5.32;1.80;;;22.60;52.30;;;;;;5022895;28;20494;-72
2022/05/11 09:15:03;;;;;;;3.22;1.58;;;22.60;52.20;;;;;;5022152;28;20041;-73
2022/05/11 09:17:40;;;;;;;4.95;1.80;;;22.60;52.20;;;;;;5021693;28;20083;-73
2022/05/11 09:20:15;;;;;;;3.80;1.55;;;22.60;52.10;;;;;;5021554;28;20055;-72
2022/05/11 09:22:53;;;;;;;4.05;1.50;;;22.60;52.00;;;;;;5021357;28;20604;-73
2022/05/11 09:25:26;;;;;;;5.00;1.67;;;22.70;51.90;;;;;;5031918;28;20107;-72
2022/05/11 09:27:52;;;;;;;4.88;1.63;;;22.70;51.90;;;;;;5018597;28;20164;-73
2022/05/11 09:30:27;;;;;;;5.93;1.90;;;22.60;51.80;;;;;;5017949;28;20088;-72
2022/05/11 09:33:12;;;;;;;4.57;1.65;;;22.70;51.70;;;;;;5019592;28;20038;-71
2022/05/11 09:35:39;;;;;;;4.28;1.60;;;22.70;51.60;;;;;;5019957;28;20361;-72
2022/05/11 09:38:07;;;;;;;4.47;1.50;;;22.70;51.60;;;;;;5021414;28;20042;-72
2022/05/11 09:41:09;;;;;;;5.38;1.60;;;22.80;51.60;;;;;;5020862;28;20821;-73
2022/05/11 09:43:41;;;;;;;6.03;1.50;;;22.80;51.40;;;;;;5011582;28;20060;-74
2022/05/11 09:46:22;;;;;;;6.95;2.08;;;22.80;51.50;;;;;;5015184;28;20576;-72
2022/05/11 09:49:10;;;;;;;9.77;2.00;;;22.90;51.40;;;;;;5016075;28;20042;-74
2022/05/11 09:51:38;;;;;;;7.22;1.88;;;22.90;51.20;;;;;;5017615;28;20049;-75
2022/05/11 09:54:33;;;;;;;3.13;1.30;;;22.90;51.20;;;;;;5019221;28;20425;-77
2022/05/11 09:57:11;;;;;;;4.35;1.90;;;22.90;51.10;;;;;;5019726;28;20049;-72
2022/05/11 09:59:39;;;;;;;8.50;1.65;;;22.90;51.00;;;;;;5018668;28;20128;-72
2022/05/11 10:02:38;;;;;;;5.00;1.58;;;22.90;51.00;;;;;;5018557;28;20041;-72
2022/05/11 10:05:06;;;;;;;6.28;1.65;;;22.90;50.90;;;;;;5019881;28;20532;-72
2022/05/11 10:07:41;;;;;;;2.67;1.40;;;22.90;51.00;;;;;;5017768;28;20061;-70
2022/05/11 10:10:36;;;;;;;4.50;1.63;;;22.90;50.90;;;;;;5016790;28;20077;-70
2022/05/11 10:13:18;;;;;;;4.22;1.55;;;22.90;50.90;;;;;;5007715;28;20065;-71
2022/05/11 10:24:39;;;;;;;6.38;1.50;;;22.90;50.70;;;;;;5016829;28;20128;-77
2022/05/11 10:27:27;;;;;;;8.65;2.13;;;22.90;50.80;;;;;;5017468;28;20088;-80
2022/05/11 10:30:03;;;;;;;4.45;1.45;;;22.90;50.70;;;;;;5014558;28;20053;-78
2022/05/11 10:32:47;;;;;;;5.50;1.58;;;22.90;50.70;;;;;;5020007;28;20041;-72
2022/05/11 10:35:36;;;;;;;4.30;1.63;;;22.90;50.60;;;;;;5019380;28;20046;-76
2022/05/11 10:38:15;;;;;;;7.90;2.20;;;22.90;50.60;;;;;;5014274;28;20049;-76
2022/05/11 10:41:12;;;;;;;9.32;1.58;;;22.90;50.70;;;;;;5018294;28;20453;-75
2022/05/11 10:44:00;;;;;;;4.65;1.50;;;22.90;50.70;;;;;;5018195;28;20183;-70
2022/05/11 10:46:36;;;;;;;8.20;1.73;;;22.90;50.90;;;;;;5015296;28;20049;-70
2022/05/11 10:49:14;;;;;;;9.38;1.60;;;22.90;51.50;;;;;;5017664;28;20086;-74
2022/05/11 10:51:58;;;;;;;10.75;1.75;;;22.90;51.90;;;;;;5021433;28;20033;-74
2022/05/11 10:54:45;;;;;;;6.47;1.60;;;22.80;51.90;;;;;;5002876;28;20087;-83
2022/05/11 10:57:23;;;;;;;13.07;1.73;;;22.90;51.90;;;;;;5022152;28;20048;-80
2022/05/11 11:00:07;;;;;;;5.80;1.87;;;22.90;51.80;;;;;;5019505;28;20132;-77
2022/05/11 11:03:10;;;;;;;6.00;1.88;;;22.90;51.80;;;;;;5020259;28;20288;-79
2022/05/11 11:05:38;;;;;;;6.13;1.98;;;22.80;51.70;;;;;;5018599;28;20045;-73
2022/05/11 11:08:22;;;;;;;;;;;22.90;51.60;;;;;;5014644;28;20049;-75
2022/05/11 11:10:57;;;;;;;5.82;1.98;;;22.80;51.10;;;;;;5012599;28;19963;-75
2022/05/11 11:13:47;;;;;;;7.03;1.85;;;22.80;51.10;;;;;;5011819;28;20041;-81
2022/05/11 11:16:13;;;;;;;6.20;1.88;;;22.90;50.50;;;;;;5014521;28;20056;-74
2022/05/11 11:18:46;;;;;;;10.63;2.00;;;22.90;50.40;;;;;;4998644;28;20429;-74
2022/05/11 11:21:13;;;;;;;5.47;1.67;;;22.90;50.00;;;;;;5018071;28;20049;-74
2022/05/11 11:23:41;;;;;;;8.50;1.70;;;22.90;49.60;;;;;;5021612;28;20584;-77
2022/05/11 11:26:13;;;;;;;7.00;1.73;;;22.90;49.10;;;;;;5018967;28;20080;-78
2022/05/11 11:28:41;;;;;;;10.10;1.45;;;22.90;48.70;;;;;;5022577;28;20049;-71
2022/05/11 11:31:10;;;;;;;10.20;1.50;;;22.90;48.40;;;;;;5018375;28;20053;-74
2022/05/11 11:34:00;;;;;;;6.20;1.70;;;22.90;48.20;;;;;;5020920;28;20102;-71
2022/05/11 11:36:31;;;;;;;6.43;1.40;;;22.90;48.00;;;;;;5023842;28;20053;-76
2022/05/11 11:38:59;;;;;;;4.93;1.40;;;22.90;47.90;;;;;;5017324;28;20057;-77
2022/05/11 11:41:28;;;;;;;9.38;1.50;;;22.90;47.90;;;;;;5015848;28;20428;-74
2022/05/11 11:43:55;;;;;;;6.10;1.15;;;22.90;47.70;;;;;;5018847;28;20069;-78
2022/05/11 11:46:40;;;;;;;6.35;1.40;;;22.90;47.40;;;;;;5017139;28;20115;-77
2022/05/11 11:49:10;;;;;;;5.95;1.40;;;22.90;47.00;;;;;;5017803;28;20041;-74
2022/05/11 11:51:52;;;;;;;7.18;1.48;;;23.00;47.00;;;;;;5021428;28;20128;-74
2022/05/11 11:54:32;;;;;;;7.63;1.20;;;23.00;46.70;;;;;;5016421;28;20057;-73
2022/05/11 11:57:00;;;;;;;7.13;1.40;;;23.00;47.50;;;;;;5002503;28;20053;-75
2022/05/11 11:59:26;;;;;;;6.65;1.30;;;22.90;46.70;;;;;;5020582;28;20045;-79
2022/05/11 12:02:14;;;;;;;5.60;1.10;;;22.90;46.70;;;;;;5017818;28;20122;-79
2022/05/11 12:04:47;;;;;;;7.68;1.35;;;23.00;46.50;;;;;;5003129;28;20030;-75
2022/05/11 12:15:42;;;;;;;6.10;1.05;;;23.00;46.00;;;;;;5018097;28;20045;-74
2022/05/11 12:18:25;;;;;;;6.10;1.40;;;23.00;45.80;;;;;;5013072;28;20820;-75
2022/05/11 12:20:54;;;;;;;5.80;1.25;;;23.00;45.50;;;;;;5012725;28;20572;-73
2022/05/11 12:23:21;;;;;;;;;;;23.00;45.60;;;;;;5009624;28;20499;-74
2022/05/11 12:26:00;;;;;;;5.30;1.23;;;23.00;45.60;;;;;;5018174;28;19933;-76
2022/05/11 12:29:54;;;;;;;5.75;1.40;;;23.00;45.60;;;;;;5015040;28;20080;-76
2022/05/11 12:31:37;;;;;;;5.28;0.95;;;23.00;45.40;;;;;;5018866;28;20075;-74
2022/05/11 12:34:06;;;;;;;9.35;1.25;;;23.00;45.50;;;;;;5020336;28;20144;-76
2022/05/11 12:36:34;;;;;;;5.25;1.00;;;23.00;45.40;;;;;;5023842;28;20505;-73
2022/05/11 12:39:00;;;;;;;7.18;1.38;;;23.10;45.40;;;;;;5025118;28;20061;-73
2022/05/11 12:41:27;;;;;;;6.18;1.20;;;23.00;45.20;;;;;;5024849;28;20038;-75
2022/05/11 12:43:56;;;;;;;6.15;0.95;;;23.00;45.10;;;;;;5022403;28;20140;-72
2022/05/11 12:46:22;;;;;;;8.45;1.20;;;23.00;45.10;;;;;;5024782;28;20053;-70
2022/05/11 12:48:53;;;;;;;6.93;1.50;;;23.10;45.10;;;;;;5020705;28;20050;-74
2022/05/11 12:51:36;;;;;;;4.50;1.02;;;23.10;45.10;;;;;;5023809;28;20628;-75
2022/05/11 12:54:05;;;;;;;7.63;1.45;;;23.10;44.80;;;;;;5021585;28;20934;-70
2022/05/11 12:56:35;;;;;;;3.42;1.00;;;23.10;44.80;;;;;;5024048;28;20042;-71
2022/05/11 12:59:17;;;;;;;6.57;1.17;;;23.10;44.80;;;;;;5021976;28;20107;-74
2022/05/11 13:01:43;;;;;;;9.15;1.35;;;23.10;44.80;;;;;;5005072;28;20076;-72
2022/05/11 13:04:18;;;;;;;6.85;1.70;;;23.10;44.80;;;;;;5023243;28;20137;-69
2022/05/11 13:06:48;;;;;;;6.68;1.48;;;23.10;44.50;;;;;;5023071;28;20578;-76
2022/05/11 13:09:16;;;;;;;5.80;1.50;;;23.10;44.30;;;;;;5022635;28;20164;-77
2022/05/11 13:11:43;;;;;;;7.03;1.27;;;23.10;44.40;;;;;;5022510;28;20124;-74
2022/05/11 13:14:16;;;;;;;8.68;1.20;;;23.10;44.30;;;;;;5022119;28;20048;-74
2022/05/11 13:16:48;;;;;;;5.05;1.35;;;23.10;44.30;;;;;;5022109;28;20140;-75
2022/05/11 13:19:33;;;;;;;5.63;1.20;;;23.10;44.40;;;;;;5022662;28;20038;-75
2022/05/11 13:22:03;;;;;;;7.03;1.63;;;23.10;44.40;;;;;;5023356;28;20092;-75
2022/05/11 13:24:46;;;;;;;8.02;1.63;;;23.10;44.50;;;;;;5023633;28;20100;-70
2022/05/11 13:27:33;;;;;;;4.68;1.20;;;23.10;44.50;;;;;;5021454;28;20049;-72
2022/05/11 13:30:14;;;;;;;4.15;1.33;;;23.00;44.50;;;;;;5021358;28;20053;-71
2022/05/11 13:32:51;;;;;;;6.57;2.17;;;23.10;44.70;;;;;;5024325;28;20478;-71
2022/05/11 13:35:19;;;;;;;4.72;1.15;;;23.10;44.70;;;;;;5020995;28;20393;-71
2022/05/11 13:38:02;;;;;;;4.25;1.10;;;23.10;44.80;;;;;;5021925;28;20030;-71
2022/05/11 13:40:32;;;;;;;4.43;1.23;;;23.10;44.90;;;;;;5021511;28;20045;-70
2022/05/11 13:42:58;;;;;;;5.72;1.65;;;23.00;44.90;;;;;;4987138;28;1033005;-70
2022/05/11 13:45:24;;;;;;;5.68;1.30;;;23.10;45.00;;;;;;5024176;28;20060;-70
2022/05/11 13:48:13;;;;;;;4.30;1.40;;;23.00;45.10;;;;;;5023868;28;20041;-70